sensor_id;sensor_type;location;lat;lon;timestamp;P1;durP1;ratioP1;P2;durP2;ratioP2
46377;SDS011;32083;47.360;9.650;2023-03-20T00:03:54;4.22;;;3.83;;
46377;SDS011;32083;47.360;9.650;2023-03-20T00:06:22;5.63;;;3.80;;
46377;SDS011;32083;47.360;9.650;2023-03-20T00:08:52;5.22;;;3.33;;
46377;SDS011;32083;47.360;9.650;2023-03-20T00:11:28;4.00;;;3.67;;
46377;SDS011;32083;47.360;9.650;2023-03-20T00:14:07;7.90;;;6.22;;
46377;SDS011;32083;47.360;9.650;2023-03-20T00:16:38;6.05;;;4.55;;
46377;SDS011;32083;47.360;9.650;2023-03-20T00:19:06;7.28;;;4.38;;
46377;SDS011;32083;47.360;9.650;2023-03-20T00:21:42;5.53;;;4.85;;
46377;SDS011;32083;47.360;9.650;2023-03-20T00:24:10;5.25;;;4.75;;
46377;SDS011;32083;47.360;9.650;2023-03-20T00:26:38;4.10;;;3.70;;
46377;SDS011;32083;47.360;9.650;2023-03-20T00:29:05;6.53;;;4.30;;
46377;SDS011;32083;47.360;9.650;2023-03-20T00:31:39;6.18;;;3.92;;
46377;SDS011;32083;47.360;9.650;2023-03-20T00:34:08;6.32;;;4.00;;
46377;SDS011;32083;47.360;9.650;2023-03-20T00:36:37;5.05;;;3.90;;
46377;SDS011;32083;47.360;9.650;2023-03-20T00:39:03;7.50;;;4.57;;
46377;SDS011;32083;47.360;9.650;2023-03-20T00:41:37;5.32;;;3.85;;
46377;SDS011;32083;47.360;9.650;2023-03-20T00:46:43;4.82;;;3.78;;
46377;SDS011;32083;47.360;9.650;2023-03-20T00:49:11;4.07;;;3.45;;
46377;SDS011;32083;47.360;9.650;2023-03-20T00:51:39;6.15;;;4.65;;
46377;SDS011;32083;47.360;9.650;2023-03-20T00:54:13;5.72;;;5.18;;
46377;SDS011;32083;47.360;9.650;2023-03-20T00:56:44;4.40;;;3.97;;
46377;SDS011;32083;47.360;9.650;2023-03-20T00:59:17;5.10;;;3.85;;
46377;SDS011;32083;47.360;9.650;2023-03-20T01:01:49;8.40;;;5.10;;
46377;SDS011;32083;47.360;9.650;2023-03-20T01:04:15;5.75;;;4.65;;
46377;SDS011;32083;47.360;9.650;2023-03-20T01:06:43;5.88;;;4.80;;
46377;SDS011;32083;47.360;9.650;2023-03-20T01:09:10;5.10;;;3.88;;
46377;SDS011;32083;47.360;9.650;2023-03-20T01:11:36;6.88;;;4.35;;
46377;SDS011;32083;47.360;9.650;2023-03-20T01:14:04;6.60;;;4.25;;
46377;SDS011;32083;47.360;9.650;2023-03-20T01:16:30;5.40;;;4.57;;
46377;SDS011;32083;47.360;9.650;2023-03-20T01:18:57;4.10;;;3.70;;
46377;SDS011;32083;47.360;9.650;2023-03-20T01:21:23;5.03;;;4.53;;
46377;SDS011;32083;47.360;9.650;2023-03-20T01:23:49;5.03;;;4.57;;
46377;SDS011;32083;47.360;9.650;2023-03-20T01:29:01;5.00;;;4.05;;
46377;SDS011;32083;47.360;9.650;2023-03-20T01:31:28;5.93;;;5.35;;
46377;SDS011;32083;47.360;9.650;2023-03-20T01:33:54;6.07;;;4.80;;
46377;SDS011;32083;47.360;9.650;2023-03-20T01:36:20;4.63;;;3.45;;
46377;SDS011;32083;47.360;9.650;2023-03-20T01:38:50;6.00;;;4.78;;
46377;SDS011;32083;47.360;9.650;2023-03-20T01:41:22;7.35;;;4.30;;
46377;SDS011;32083;47.360;9.650;2023-03-20T01:43:49;5.13;;;3.90;;
46377;SDS011;32083;47.360;9.650;2023-03-20T01:51:50;5.80;;;4.82;;
46377;SDS011;32083;47.360;9.650;2023-03-20T01:56:49;4.65;;;3.80;;
46377;SDS011;32083;47.360;9.650;2023-03-20T01:59:46;5.55;;;4.80;;
46377;SDS011;32083;47.360;9.650;2023-03-20T02:02:20;5.53;;;5.03;;
46377;SDS011;32083;47.360;9.650;2023-03-20T02:04:51;5.70;;;5.20;;
46377;SDS011;32083;47.360;9.650;2023-03-20T02:07:20;5.75;;;5.25;;
46377;SDS011;32083;47.360;9.650;2023-03-20T02:09:48;5.40;;;4.90;;
46377;SDS011;32083;47.360;9.650;2023-03-20T02:12:14;5.38;;;4.72;;
46377;SDS011;32083;47.360;9.650;2023-03-20T02:14:42;7.85;;;6.25;;
46377;SDS011;32083;47.360;9.650;2023-03-20T02:17:11;8.07;;;7.18;;
46377;SDS011;32083;47.360;9.650;2023-03-20T02:22:48;5.60;;;5.00;;
46377;SDS011;32083;47.360;9.650;2023-03-20T02:25:55;9.00;;;8.10;;
46377;SDS011;32083;47.360;9.650;2023-03-20T02:40:32;7.75;;;6.95;;
46377;SDS011;32083;47.360;9.650;2023-03-20T02:45:54;8.43;;;7.28;;
46377;SDS011;32083;47.360;9.650;2023-03-20T02:48:32;6.25;;;5.70;;
46377;SDS011;32083;47.360;9.650;2023-03-20T02:53:47;8.80;;;7.88;;
46377;SDS011;32083;47.360;9.650;2023-03-20T02:57:16;7.40;;;6.78;;
46377;SDS011;32083;47.360;9.650;2023-03-20T03:02:20;7.18;;;5.85;;
46377;SDS011;32083;47.360;9.650;2023-03-20T03:05:01;6.20;;;5.55;;
46377;SDS011;32083;47.360;9.650;2023-03-20T03:07:33;8.02;;;7.22;;
46377;SDS011;32083;47.360;9.650;2023-03-20T03:10:02;6.65;;;6.05;;
46377;SDS011;32083;47.360;9.650;2023-03-20T03:12:34;6.63;;;5.70;;
46377;SDS011;32083;47.360;9.650;2023-03-20T03:15:03;5.70;;;5.25;;
46377;SDS011;32083;47.360;9.650;2023-03-20T03:17:34;6.72;;;6.10;;
46377;SDS011;32083;47.360;9.650;2023-03-20T03:20:04;8.55;;;7.35;;
46377;SDS011;32083;47.360;9.650;2023-03-20T03:22:38;6.68;;;5.97;;
46377;SDS011;32083;47.360;9.650;2023-03-20T03:25:04;6.47;;;5.72;;
46377;SDS011;32083;47.360;9.650;2023-03-20T03:27:35;5.95;;;5.35;;
46377;SDS011;32083;47.360;9.650;2023-03-20T03:32:46;9.02;;;8.15;;
46377;SDS011;32083;47.360;9.650;2023-03-20T03:35:14;8.30;;;7.50;;
46377;SDS011;32083;47.360;9.650;2023-03-20T03:49:12;10.95;;;9.30;;
46377;SDS011;32083;47.360;9.650;2023-03-20T03:54:19;8.65;;;7.85;;
46377;SDS011;32083;47.360;9.650;2023-03-20T03:57:08;9.77;;;8.18;;
46377;SDS011;32083;47.360;9.650;2023-03-20T03:59:38;8.68;;;7.88;;
46377;SDS011;32083;47.360;9.650;2023-03-20T04:02:07;8.85;;;7.95;;
46377;SDS011;32083;47.360;9.650;2023-03-20T04:04:34;9.70;;;8.70;;
46377;SDS011;32083;47.360;9.650;2023-03-20T04:07:05;9.65;;;8.65;;
46377;SDS011;32083;47.360;9.650;2023-03-20T04:09:31;10.57;;;8.30;;
46377;SDS011;32083;47.360;9.650;2023-03-20T04:11:57;12.57;;;10.45;;
46377;SDS011;32083;47.360;9.650;2023-03-20T04:14:23;10.20;;;8.38;;
46377;SDS011;32083;47.360;9.650;2023-03-20T04:16:49;13.65;;;9.32;;
46377;SDS011;32083;47.360;9.650;2023-03-20T04:19:15;21.48;;;12.40;;
46377;SDS011;32083;47.360;9.650;2023-03-20T04:21:41;11.10;;;9.13;;
46377;SDS011;32083;47.360;9.650;2023-03-20T04:24:07;12.95;;;8.80;;
46377;SDS011;32083;47.360;9.650;2023-03-20T04:26:32;13.85;;;11.68;;
46377;SDS011;32083;47.360;9.650;2023-03-20T04:28:58;17.08;;;11.70;;
46377;SDS011;32083;47.360;9.650;2023-03-20T04:31:25;12.10;;;10.82;;
46377;SDS011;32083;47.360;9.650;2023-03-20T04:33:52;14.75;;;9.93;;
46377;SDS011;32083;47.360;9.650;2023-03-20T04:36:18;10.68;;;9.38;;
46377;SDS011;32083;47.360;9.650;2023-03-20T04:38:44;9.93;;;8.95;;
46377;SDS011;32083;47.360;9.650;2023-03-20T04:41:09;13.38;;;11.38;;
46377;SDS011;32083;47.360;9.650;2023-03-20T04:43:35;8.95;;;8.05;;
46377;SDS011;32083;47.360;9.650;2023-03-20T04:46:01;13.52;;;11.05;;
46377;SDS011;32083;47.360;9.650;2023-03-20T04:48:27;13.77;;;9.80;;
46377;SDS011;32083;47.360;9.650;2023-03-20T04:50:53;11.23;;;9.63;;
46377;SDS011;32083;47.360;9.650;2023-03-20T04:53:19;11.23;;;10.15;;
46377;SDS011;32083;47.360;9.650;2023-03-20T04:55:45;12.32;;;10.90;;
46377;SDS011;32083;47.360;9.650;2023-03-20T04:58:13;15.88;;;11.18;;
46377;SDS011;32083;47.360;9.650;2023-03-20T05:00:39;14.90;;;13.43;;
46377;SDS011;32083;47.360;9.650;2023-03-20T05:03:05;15.98;;;11.20;;
46377;SDS011;32083;47.360;9.650;2023-03-20T05:05:31;12.15;;;10.95;;
46377;SDS011;32083;47.360;9.650;2023-03-20T05:07:58;12.00;;;10.65;;
46377;SDS011;32083;47.360;9.650;2023-03-20T05:10:23;10.38;;;9.27;;
46377;SDS011;32083;47.360;9.650;2023-03-20T05:12:49;9.68;;;8.68;;
46377;SDS011;32083;47.360;9.650;2023-03-20T05:15:15;13.43;;;12.02;;
46377;SDS011;32083;47.360;9.650;2023-03-20T05:17:42;13.10;;;11.77;;
46377;SDS011;32083;47.360;9.650;2023-03-20T05:20:07;14.00;;;11.65;;
46377;SDS011;32083;47.360;9.650;2023-03-20T05:22:34;11.88;;;10.75;;
46377;SDS011;32083;47.360;9.650;2023-03-20T05:24:59;13.98;;;12.57;;
46377;SDS011;32083;47.360;9.650;2023-03-20T05:27:25;15.70;;;14.13;;
46377;SDS011;32083;47.360;9.650;2023-03-20T05:29:54;14.07;;;11.95;;
46377;SDS011;32083;47.360;9.650;2023-03-20T05:32:20;15.07;;;11.05;;
46377;SDS011;32083;47.360;9.650;2023-03-20T05:34:46;15.15;;;9.70;;
46377;SDS011;32083;47.360;9.650;2023-03-20T05:37:12;14.60;;;11.27;;
46377;SDS011;32083;47.360;9.650;2023-03-20T05:39:38;15.52;;;12.43;;
46377;SDS011;32083;47.360;9.650;2023-03-20T05:42:03;10.45;;;9.32;;
46377;SDS011;32083;47.360;9.650;2023-03-20T05:44:29;16.63;;;12.60;;
46377;SDS011;32083;47.360;9.650;2023-03-20T05:46:55;15.98;;;12.85;;
46377;SDS011;32083;47.360;9.650;2023-03-20T05:49:21;21.83;;;13.48;;
46377;SDS011;32083;47.360;9.650;2023-03-20T05:51:47;15.48;;;13.13;;
46377;SDS011;32083;47.360;9.650;2023-03-20T05:54:12;11.93;;;10.55;;
46377;SDS011;32083;47.360;9.650;2023-03-20T05:56:38;12.07;;;10.55;;
46377;SDS011;32083;47.360;9.650;2023-03-20T05:59:04;18.10;;;10.57;;
46377;SDS011;32083;47.360;9.650;2023-03-20T06:01:30;14.55;;;11.82;;
46377;SDS011;32083;47.360;9.650;2023-03-20T06:03:56;11.07;;;8.18;;
46377;SDS011;32083;47.360;9.650;2023-03-20T06:06:22;19.77;;;12.38;;
46377;SDS011;32083;47.360;9.650;2023-03-20T06:08:47;12.13;;;8.10;;
46377;SDS011;32083;47.360;9.650;2023-03-20T06:11:13;12.32;;;9.45;;
46377;SDS011;32083;47.360;9.650;2023-03-20T06:13:40;12.45;;;9.73;;
46377;SDS011;32083;47.360;9.650;2023-03-20T06:16:05;12.98;;;10.65;;
46377;SDS011;32083;47.360;9.650;2023-03-20T06:18:31;22.35;;;14.77;;
46377;SDS011;32083;47.360;9.650;2023-03-20T06:20:57;15.10;;;12.80;;
46377;SDS011;32083;47.360;9.650;2023-03-20T06:23:23;18.70;;;12.95;;
46377;SDS011;32083;47.360;9.650;2023-03-20T06:25:49;15.63;;;11.45;;
46377;SDS011;32083;47.360;9.650;2023-03-20T06:28:15;20.63;;;14.18;;
46377;SDS011;32083;47.360;9.650;2023-03-20T06:30:41;12.27;;;10.93;;
46377;SDS011;32083;47.360;9.650;2023-03-20T06:33:07;18.02;;;12.48;;
46377;SDS011;32083;47.360;9.650;2023-03-20T06:35:34;13.98;;;12.52;;
46377;SDS011;32083;47.360;9.650;2023-03-20T06:38:00;14.15;;;12.65;;
46377;SDS011;32083;47.360;9.650;2023-03-20T06:40:26;14.40;;;12.00;;
46377;SDS011;32083;47.360;9.650;2023-03-20T06:42:52;19.70;;;13.82;;
46377;SDS011;32083;47.360;9.650;2023-03-20T06:45:19;17.58;;;13.57;;
46377;SDS011;32083;47.360;9.650;2023-03-20T06:47:45;11.02;;;9.93;;
46377;SDS011;32083;47.360;9.650;2023-03-20T06:50:12;13.50;;;10.93;;
46377;SDS011;32083;47.360;9.650;2023-03-20T06:52:38;13.05;;;11.73;;
46377;SDS011;32083;47.360;9.650;2023-03-20T06:55:05;13.10;;;11.63;;
46377;SDS011;32083;47.360;9.650;2023-03-20T06:57:43;15.52;;;13.95;;
46377;SDS011;32083;47.360;9.650;2023-03-20T07:00:10;15.73;;;12.65;;
46377;SDS011;32083;47.360;9.650;2023-03-20T07:02:37;13.77;;;12.32;;
46377;SDS011;32083;47.360;9.650;2023-03-20T07:05:03;13.38;;;12.02;;
46377;SDS011;32083;47.360;9.650;2023-03-20T07:07:29;16.48;;;12.82;;
46377;SDS011;32083;47.360;9.650;2023-03-20T07:09:55;13.52;;;11.43;;
46377;SDS011;32083;47.360;9.650;2023-03-20T07:12:21;12.13;;;10.95;;
46377;SDS011;32083;47.360;9.650;2023-03-20T07:14:50;14.68;;;12.65;;
46377;SDS011;32083;47.360;9.650;2023-03-20T07:17:16;14.32;;;11.50;;
46377;SDS011;32083;47.360;9.650;2023-03-20T07:19:42;12.07;;;10.80;;
46377;SDS011;32083;47.360;9.650;2023-03-20T07:22:08;13.40;;;12.02;;
46377;SDS011;32083;47.360;9.650;2023-03-20T07:25:06;11.20;;;10.00;;
46377;SDS011;32083;47.360;9.650;2023-03-20T07:27:33;11.38;;;10.18;;
46377;SDS011;32083;47.360;9.650;2023-03-20T07:30:00;8.63;;;7.82;;
46377;SDS011;32083;47.360;9.650;2023-03-20T07:32:27;14.80;;;11.38;;
46377;SDS011;32083;47.360;9.650;2023-03-20T07:34:53;14.60;;;11.25;;
46377;SDS011;32083;47.360;9.650;2023-03-20T07:37:19;12.82;;;10.55;;
46377;SDS011;32083;47.360;9.650;2023-03-20T07:39:45;12.30;;;11.00;;
46377;SDS011;32083;47.360;9.650;2023-03-20T07:42:11;13.80;;;12.40;;
46377;SDS011;32083;47.360;9.650;2023-03-20T07:44:38;13.23;;;11.85;;
46377;SDS011;32083;47.360;9.650;2023-03-20T07:47:04;15.82;;;13.23;;
46377;SDS011;32083;47.360;9.650;2023-03-20T07:49:31;12.85;;;11.18;;
46377;SDS011;32083;47.360;9.650;2023-03-20T07:51:57;15.43;;;12.52;;
46377;SDS011;32083;47.360;9.650;2023-03-20T07:54:23;17.50;;;13.10;;
46377;SDS011;32083;47.360;9.650;2023-03-20T07:56:49;12.63;;;11.30;;
46377;SDS011;32083;47.360;9.650;2023-03-20T07:59:16;10.85;;;9.75;;
46377;SDS011;32083;47.360;9.650;2023-03-20T08:01:42;13.13;;;11.13;;
46377;SDS011;32083;47.360;9.650;2023-03-20T08:04:08;16.88;;;12.73;;
46377;SDS011;32083;47.360;9.650;2023-03-20T08:06:34;15.85;;;11.98;;
46377;SDS011;32083;47.360;9.650;2023-03-20T08:09:00;13.70;;;12.15;;
46377;SDS011;32083;47.360;9.650;2023-03-20T08:11:27;14.38;;;12.57;;
46377;SDS011;32083;47.360;9.650;2023-03-20T08:13:52;13.45;;;10.50;;
46377;SDS011;32083;47.360;9.650;2023-03-20T08:16:18;13.27;;;9.85;;
46377;SDS011;32083;47.360;9.650;2023-03-20T08:18:44;14.02;;;12.55;;
46377;SDS011;32083;47.360;9.650;2023-03-20T08:21:10;14.93;;;11.13;;
46377;SDS011;32083;47.360;9.650;2023-03-20T08:23:36;13.40;;;11.07;;
46377;SDS011;32083;47.360;9.650;2023-03-20T08:26:02;12.95;;;10.63;;
46377;SDS011;32083;47.360;9.650;2023-03-20T08:28:28;10.73;;;9.63;;
46377;SDS011;32083;47.360;9.650;2023-03-20T08:30:54;10.75;;;9.73;;
46377;SDS011;32083;47.360;9.650;2023-03-20T08:33:20;11.50;;;10.32;;
46377;SDS011;32083;47.360;9.650;2023-03-20T08:35:56;16.38;;;12.40;;
46377;SDS011;32083;47.360;9.650;2023-03-20T08:38:23;12.52;;;11.23;;
46377;SDS011;32083;47.360;9.650;2023-03-20T08:40:49;11.20;;;9.23;;
46377;SDS011;32083;47.360;9.650;2023-03-20T08:43:15;14.32;;;11.25;;
46377;SDS011;32083;47.360;9.650;2023-03-20T08:45:41;11.15;;;9.43;;
46377;SDS011;32083;47.360;9.650;2023-03-20T08:48:07;10.15;;;9.15;;
46377;SDS011;32083;47.360;9.650;2023-03-20T08:50:34;11.00;;;10.00;;
46377;SDS011;32083;47.360;9.650;2023-03-20T08:52:59;10.63;;;9.57;;
46377;SDS011;32083;47.360;9.650;2023-03-20T08:55:26;9.68;;;8.68;;
46377;SDS011;32083;47.360;9.650;2023-03-20T08:57:52;8.70;;;7.75;;
46377;SDS011;32083;47.360;9.650;2023-03-20T09:00:18;8.63;;;7.82;;
46377;SDS011;32083;47.360;9.650;2023-03-20T09:02:45;8.98;;;7.30;;
46377;SDS011;32083;47.360;9.650;2023-03-20T09:05:11;5.85;;;5.25;;
46377;SDS011;32083;47.360;9.650;2023-03-20T09:07:37;6.90;;;6.30;;
46377;SDS011;32083;47.360;9.650;2023-03-20T09:10:03;6.90;;;5.80;;
46377;SDS011;32083;47.360;9.650;2023-03-20T09:12:30;5.13;;;4.63;;
46377;SDS011;32083;47.360;9.650;2023-03-20T09:14:57;5.60;;;5.00;;
46377;SDS011;32083;47.360;9.650;2023-03-20T09:17:23;7.97;;;6.32;;
46377;SDS011;32083;47.360;9.650;2023-03-20T09:19:50;6.97;;;4.88;;
46377;SDS011;32083;47.360;9.650;2023-03-20T09:22:16;6.07;;;5.25;;
46377;SDS011;32083;47.360;9.650;2023-03-20T09:24:43;6.60;;;5.88;;
46377;SDS011;32083;47.360;9.650;2023-03-20T09:27:09;6.13;;;5.53;;
46377;SDS011;32083;47.360;9.650;2023-03-20T09:29:38;6.68;;;5.25;;
46377;SDS011;32083;47.360;9.650;2023-03-20T09:32:05;5.07;;;4.57;;
46377;SDS011;32083;47.360;9.650;2023-03-20T09:34:31;6.00;;;4.60;;
46377;SDS011;32083;47.360;9.650;2023-03-20T09:36:57;4.70;;;4.30;;
46377;SDS011;32083;47.360;9.650;2023-03-20T09:39:23;6.05;;;4.47;;
46377;SDS011;32083;47.360;9.650;2023-03-20T09:41:49;5.45;;;3.88;;
46377;SDS011;32083;47.360;9.650;2023-03-20T09:52:39;4.28;;;3.83;;
46377;SDS011;32083;47.360;9.650;2023-03-20T09:55:33;4.35;;;3.30;;
46377;SDS011;32083;47.360;9.650;2023-03-20T09:58:03;5.45;;;4.07;;
46377;SDS011;32083;47.360;9.650;2023-03-20T10:00:34;2.88;;;2.67;;
46377;SDS011;32083;47.360;9.650;2023-03-20T10:03:02;4.57;;;3.33;;
46377;SDS011;32083;47.360;9.650;2023-03-20T10:08:36;2.58;;;2.33;;
46377;SDS011;32083;47.360;9.650;2023-03-20T10:11:06;3.30;;;2.75;;
46377;SDS011;32083;47.360;9.650;2023-03-20T10:16:50;3.05;;;2.20;;
46377;SDS011;32083;47.360;9.650;2023-03-20T10:21:47;3.80;;;2.90;;
46377;SDS011;32083;47.360;9.650;2023-03-20T10:27:28;4.38;;;3.03;;
46377;SDS011;32083;47.360;9.650;2023-03-20T10:32:32;2.58;;;2.38;;
46377;SDS011;32083;47.360;9.650;2023-03-20T10:40:49;8.10;;;3.13;;
46377;SDS011;32083;47.360;9.650;2023-03-20T10:48:22;3.30;;;2.55;;
46377;SDS011;32083;47.360;9.650;2023-03-20T10:50:52;3.38;;;2.80;;
46377;SDS011;32083;47.360;9.650;2023-03-20T10:53:29;6.97;;;2.90;;
46377;SDS011;32083;47.360;9.650;2023-03-20T10:56:12;3.20;;;2.90;;
46377;SDS011;32083;47.360;9.650;2023-03-20T10:58:47;3.25;;;2.83;;
46377;SDS011;32083;47.360;9.650;2023-03-20T11:01:18;5.18;;;3.20;;
46377;SDS011;32083;47.360;9.650;2023-03-20T11:03:45;3.15;;;2.85;;
46377;SDS011;32083;47.360;9.650;2023-03-20T11:09:18;4.55;;;3.13;;
46377;SDS011;32083;47.360;9.650;2023-03-20T11:11:46;3.60;;;2.97;;
46377;SDS011;32083;47.360;9.650;2023-03-20T11:14:20;7.72;;;4.18;;
46377;SDS011;32083;47.360;9.650;2023-03-20T11:16:52;4.75;;;3.50;;
46377;SDS011;32083;47.360;9.650;2023-03-20T11:19:19;3.40;;;3.10;;
46377;SDS011;32083;47.360;9.650;2023-03-20T11:21:50;4.68;;;3.40;;
46377;SDS011;32083;47.360;9.650;2023-03-20T11:24:23;6.32;;;3.00;;
46377;SDS011;32083;47.360;9.650;2023-03-20T11:27:03;5.85;;;4.00;;
46377;SDS011;32083;47.360;9.650;2023-03-20T11:29:34;4.53;;;3.30;;
46377;SDS011;32083;47.360;9.650;2023-03-20T11:32:04;6.22;;;3.63;;
46377;SDS011;32083;47.360;9.650;2023-03-20T11:34:39;3.72;;;2.45;;
46377;SDS011;32083;47.360;9.650;2023-03-20T11:37:20;4.07;;;2.33;;
46377;SDS011;32083;47.360;9.650;2023-03-20T11:40:32;4.40;;;2.78;;
46377;SDS011;32083;47.360;9.650;2023-03-20T11:45:24;2.65;;;2.45;;
46377;SDS011;32083;47.360;9.650;2023-03-20T11:47:52;4.18;;;2.83;;
46377;SDS011;32083;47.360;9.650;2023-03-20T11:50:37;5.05;;;3.00;;
46377;SDS011;32083;47.360;9.650;2023-03-20T11:53:21;5.63;;;2.35;;
46377;SDS011;32083;47.360;9.650;2023-03-20T11:56:04;3.95;;;2.70;;
46377;SDS011;32083;47.360;9.650;2023-03-20T11:58:30;3.85;;;2.60;;
46377;SDS011;32083;47.360;9.650;2023-03-20T12:00:59;3.25;;;2.80;;
46377;SDS011;32083;47.360;9.650;2023-03-20T12:06:49;4.75;;;3.28;;
46377;SDS011;32083;47.360;9.650;2023-03-20T12:09:43;3.05;;;2.63;;
46377;SDS011;32083;47.360;9.650;2023-03-20T12:19:51;3.42;;;2.70;;
46377;SDS011;32083;47.360;9.650;2023-03-20T12:22:25;2.53;;;2.33;;
46377;SDS011;32083;47.360;9.650;2023-03-20T12:25:13;3.35;;;2.50;;
46377;SDS011;32083;47.360;9.650;2023-03-20T12:27:48;3.40;;;2.97;;
46377;SDS011;32083;47.360;9.650;2023-03-20T12:33:27;2.83;;;2.53;;
46377;SDS011;32083;47.360;9.650;2023-03-20T12:36:11;3.90;;;2.70;;
46377;SDS011;32083;47.360;9.650;2023-03-20T12:38:43;4.03;;;2.95;;
46377;SDS011;32083;47.360;9.650;2023-03-20T12:50:28;5.65;;;3.35;;
46377;SDS011;32083;47.360;9.650;2023-03-20T12:53:16;5.60;;;2.87;;
46377;SDS011;32083;47.360;9.650;2023-03-20T13:01:21;2.97;;;2.38;;
46377;SDS011;32083;47.360;9.650;2023-03-20T13:04:11;3.40;;;2.97;;
46377;SDS011;32083;47.360;9.650;2023-03-20T13:15:06;3.03;;;2.40;;
46377;SDS011;32083;47.360;9.650;2023-03-20T13:20:30;3.97;;;2.67;;
46377;SDS011;32083;47.360;9.650;2023-03-20T13:25:41;3.55;;;2.55;;
46377;SDS011;32083;47.360;9.650;2023-03-20T13:28:32;2.63;;;2.38;;
46377;SDS011;32083;47.360;9.650;2023-03-20T13:31:29;3.65;;;3.25;;
46377;SDS011;32083;47.360;9.650;2023-03-20T13:36:36;5.30;;;2.95;;
46377;SDS011;32083;47.360;9.650;2023-03-20T13:41:51;5.65;;;3.63;;
46377;SDS011;32083;47.360;9.650;2023-03-20T13:44:19;3.35;;;3.08;;
46377;SDS011;32083;47.360;9.650;2023-03-20T13:46:53;3.75;;;2.97;;
46377;SDS011;32083;47.360;9.650;2023-03-20T13:52:02;3.90;;;2.58;;
46377;SDS011;32083;47.360;9.650;2023-03-20T13:54:48;4.15;;;3.03;;
46377;SDS011;32083;47.360;9.650;2023-03-20T14:00:41;2.78;;;2.00;;
46377;SDS011;32083;47.360;9.650;2023-03-20T14:05:56;8.02;;;3.00;;
46377;SDS011;32083;47.360;9.650;2023-03-20T14:11:34;3.15;;;2.15;;
46377;SDS011;32083;47.360;9.650;2023-03-20T14:13:54;2.65;;;2.45;;
46377;SDS011;32083;47.360;9.650;2023-03-20T14:16:25;2.28;;;2.08;;
46377;SDS011;32083;47.360;9.650;2023-03-20T14:21:33;3.70;;;1.92;;
46377;SDS011;32083;47.360;9.650;2023-03-20T14:24:04;3.15;;;2.85;;
46377;SDS011;32083;47.360;9.650;2023-03-20T14:26:36;2.40;;;2.20;;
46377;SDS011;32083;47.360;9.650;2023-03-20T14:31:34;3.13;;;2.47;;
46377;SDS011;32083;47.360;9.650;2023-03-20T14:47:44;2.38;;;2.10;;
46377;SDS011;32083;47.360;9.650;2023-03-20T14:55:49;12.75;;;4.22;;
46377;SDS011;32083;47.360;9.650;2023-03-20T15:06:33;4.35;;;3.47;;
46377;SDS011;32083;47.360;9.650;2023-03-20T15:09:07;3.63;;;1.83;;
46377;SDS011;32083;47.360;9.650;2023-03-20T15:11:35;3.35;;;1.85;;
46377;SDS011;32083;47.360;9.650;2023-03-20T15:14:03;2.03;;;1.83;;
46377;SDS011;32083;47.360;9.650;2023-03-20T15:16:32;3.25;;;1.92;;
46377;SDS011;32083;47.360;9.650;2023-03-20T15:19:00;2.15;;;1.90;;
46377;SDS011;32083;47.360;9.650;2023-03-20T15:21:32;5.32;;;1.92;;
46377;SDS011;32083;47.360;9.650;2023-03-20T15:24:00;2.60;;;2.40;;
46377;SDS011;32083;47.360;9.650;2023-03-20T15:26:27;3.42;;;2.20;;
46377;SDS011;32083;47.360;9.650;2023-03-20T15:29:03;4.65;;;2.20;;
46377;SDS011;32083;47.360;9.650;2023-03-20T15:31:33;5.13;;;2.20;;
46377;SDS011;32083;47.360;9.650;2023-03-20T15:34:02;1.95;;;1.70;;
46377;SDS011;32083;47.360;9.650;2023-03-20T15:36:32;2.30;;;2.00;;
46377;SDS011;32083;47.360;9.650;2023-03-20T15:39:12;2.95;;;2.28;;
46377;SDS011;32083;47.360;9.650;2023-03-20T15:41:44;3.25;;;2.00;;
46377;SDS011;32083;47.360;9.650;2023-03-20T15:44:34;2.85;;;1.70;;
46377;SDS011;32083;47.360;9.650;2023-03-20T15:47:03;2.92;;;2.50;;
46377;SDS011;32083;47.360;9.650;2023-03-20T15:49:35;4.13;;;2.25;;
46377;SDS011;32083;47.360;9.650;2023-03-20T15:52:28;3.55;;;1.98;;
46377;SDS011;32083;47.360;9.650;2023-03-20T15:54:54;1.88;;;1.70;;
46377;SDS011;32083;47.360;9.650;2023-03-20T15:57:32;2.05;;;1.70;;
46377;SDS011;32083;47.360;9.650;2023-03-20T16:00:02;2.20;;;1.67;;
46377;SDS011;32083;47.360;9.650;2023-03-20T16:02:40;2.95;;;1.80;;
46377;SDS011;32083;47.360;9.650;2023-03-20T16:05:11;3.70;;;2.45;;
46377;SDS011;32083;47.360;9.650;2023-03-20T16:07:38;9.77;;;3.20;;
46377;SDS011;32083;47.360;9.650;2023-03-20T16:10:15;2.38;;;1.90;;
46377;SDS011;32083;47.360;9.650;2023-03-20T16:12:47;3.17;;;1.95;;
46377;SDS011;32083;47.360;9.650;2023-03-20T16:15:19;2.25;;;1.50;;
46377;SDS011;32083;47.360;9.650;2023-03-20T16:17:48;3.30;;;1.85;;
46377;SDS011;32083;47.360;9.650;2023-03-20T16:20:20;1.98;;;1.77;;
46377;SDS011;32083;47.360;9.650;2023-03-20T16:22:55;3.22;;;1.95;;
46377;SDS011;32083;47.360;9.650;2023-03-20T16:25:25;6.90;;;2.17;;
46377;SDS011;32083;47.360;9.650;2023-03-20T16:27:51;4.00;;;1.80;;
46377;SDS011;32083;47.360;9.650;2023-03-20T16:30:22;4.07;;;1.80;;
46377;SDS011;32083;47.360;9.650;2023-03-20T16:32:57;3.15;;;2.00;;
46377;SDS011;32083;47.360;9.650;2023-03-20T16:35:29;2.35;;;1.55;;
46377;SDS011;32083;47.360;9.650;2023-03-20T16:38:11;1.85;;;1.70;;
46377;SDS011;32083;47.360;9.650;2023-03-20T16:40:44;4.75;;;1.80;;
46377;SDS011;32083;47.360;9.650;2023-03-20T16:43:15;4.47;;;2.50;;
46377;SDS011;32083;47.360;9.650;2023-03-20T16:45:48;2.47;;;1.83;;
46377;SDS011;32083;47.360;9.650;2023-03-20T16:48:29;2.45;;;1.58;;
46377;SDS011;32083;47.360;9.650;2023-03-20T16:51:09;4.32;;;1.92;;
46377;SDS011;32083;47.360;9.650;2023-03-20T16:53:53;5.88;;;2.10;;
46377;SDS011;32083;47.360;9.650;2023-03-20T16:56:27;4.70;;;1.75;;
46377;SDS011;32083;47.360;9.650;2023-03-20T16:59:08;2.80;;;1.80;;
46377;SDS011;32083;47.360;9.650;2023-03-20T17:01:36;3.38;;;2.28;;
46377;SDS011;32083;47.360;9.650;2023-03-20T17:07:06;3.45;;;2.08;;
46377;SDS011;32083;47.360;9.650;2023-03-20T17:09:31;2.22;;;2.00;;
46377;SDS011;32083;47.360;9.650;2023-03-20T17:12:04;2.10;;;1.80;;
46377;SDS011;32083;47.360;9.650;2023-03-20T17:14:42;2.45;;;1.48;;
46377;SDS011;32083;47.360;9.650;2023-03-20T17:17:12;5.03;;;2.17;;
46377;SDS011;32083;47.360;9.650;2023-03-20T17:19:39;3.03;;;1.90;;
46377;SDS011;32083;47.360;9.650;2023-03-20T17:22:26;3.03;;;1.90;;
46377;SDS011;32083;47.360;9.650;2023-03-20T17:24:54;3.85;;;2.08;;
46377;SDS011;32083;47.360;9.650;2023-03-20T17:27:20;3.60;;;1.77;;
46377;SDS011;32083;47.360;9.650;2023-03-20T17:29:47;3.25;;;1.90;;
46377;SDS011;32083;47.360;9.650;2023-03-20T17:32:15;5.68;;;1.75;;
46377;SDS011;32083;47.360;9.650;2023-03-20T17:34:43;2.78;;;2.00;;
46377;SDS011;32083;47.360;9.650;2023-03-20T17:37:23;2.90;;;1.80;;
46377;SDS011;32083;47.360;9.650;2023-03-20T17:39:51;4.78;;;2.17;;
46377;SDS011;32083;47.360;9.650;2023-03-20T17:42:21;3.30;;;2.35;;
46377;SDS011;32083;47.360;9.650;2023-03-20T17:44:51;5.22;;;2.63;;
46377;SDS011;32083;47.360;9.650;2023-03-20T17:47:21;3.22;;;2.47;;
46377;SDS011;32083;47.360;9.650;2023-03-20T17:49:49;3.67;;;1.90;;
46377;SDS011;32083;47.360;9.650;2023-03-20T17:52:25;2.03;;;1.75;;
46377;SDS011;32083;47.360;9.650;2023-03-20T17:54:52;2.97;;;1.52;;
46377;SDS011;32083;47.360;9.650;2023-03-20T17:57:23;2.30;;;1.40;;
46377;SDS011;32083;47.360;9.650;2023-03-20T17:59:58;2.40;;;1.73;;
46377;SDS011;32083;47.360;9.650;2023-03-20T18:02:25;1.90;;;1.45;;
46377;SDS011;32083;47.360;9.650;2023-03-20T18:04:51;3.13;;;2.08;;
46377;SDS011;32083;47.360;9.650;2023-03-20T18:07:17;3.88;;;2.38;;
46377;SDS011;32083;47.360;9.650;2023-03-20T18:09:43;3.80;;;2.40;;